默认 日期 大小 文件数 浏览量 最新下载 xml
2025/磁力链接相关资源由用户搜索指令自动获取,结果来源于网络,本站不存储任何资料,亦不承担任何责任,请于24小时内删除,搜索到325318个磁力,显示前4000条数据,用时77ms。
    {"Screens": {"screen0001.jpg": 75546, "screen0002.jpg": 174110, "screen0003.jpg": 194335, "screen0004.jpg": 187353}, "rep-glenrothan.2025.1080p.bluray.x264.mkv": 16556973100, "rep-glenrothan.2025.1080p.bluray.x264.nfo": 12511}
创建时间: 2026-08-20 14:07:55 大小:15.42 GB 文件数量:6 热度:0
    {"Torrent Downloaded From UIndex.org .txt": 127, "Night Patrol 2025 1080p DUAL AMZN WEB-DL x264 EAC3 5 1 - HdT.mkv": 8431000948, "Night Patrol 2025 1080p DUAL AMZN WEB-DL x264 EAC3 5 1 - HdT.mkv.nfo": 1766}
创建时间: 2026-08-20 14:06:42 大小:7.85 GB 文件数量:3 热度:0
    {"Importante Leeme!.vbs": 213, "ARAFTA.S01E50.2025.1080p-WEB-DL-Lat.mp4": 802929173, "Descargar Películas, Series y Animes Gratis....url": 50}
创建时间: 2026-08-20 14:01:34 大小:765.73 MB 文件数量:3 热度:0
    {"__ia_thumb.jpg": 7033, ".____padding_file": {"0": 1025564, "1": 1025564, "2": 2090119, "3": 2076672, "4": 2096332}, "Shutterspeed_2025.mp4": 1930451428, "Shutterspeed_2025.ia.mp4": 1930451428, "shutterspeed-2025_meta.xml": 820, "shutterspeed-2025_meta. ...
创建时间: 2026-08-20 14:01:13 大小:3.6 GB 文件数量:10 热度:0
    {"19 Riltim-Le.mp3": 8247451, "27 Зара-Heval.mp3": 8355130, "18 Dova Music-Neon Love.mp3": 10538235, "22 Umideep & Sardo-Gone.mp3": 10579949, "30 Novak-Чувства.mp3": 8077440, "43 Bukatara-Капкан.mp3": 7192470, "35 Dj. David Braun-Cocaine.mp3": 7691598, "20 ...
创建时间: 2026-08-20 13:59:47 大小:423.72 MB 文件数量:50 热度:0
    {"Obsesión.2025.1080P-Dual-Lat.mkv": 2317659215, "Obsesión.2025.1080P-Dual-Lat.srt": 104838, "Descargar Películas, Series y Animes Gratis....url": 50}
创建时间: 2026-08-20 13:59:29 大小:2.16 GB 文件数量:3 热度:0
    {"Выдрин А. - Рецепты кофе в турке - 2025.fb2": 641286, "Выдрин А. - Рецепты кофе в турке - 2025.pdf": 627588, "Выдрин А. - Рецепты кофе в турке - 2025.epub": 1143737}
创建时间: 2026-08-20 13:54:42 大小:2.3 MB 文件数量:3 热度:0
    {"Privorot.s01e01.2025.WEBRip-AVC.KPK.GF.mp4": 206289817, "Privorot.s01e02.2025.WEBRip-AVC.KPK.GF.mp4": 202712868, "Privorot.s01e03.2025.WEBRip-AVC.KPK.GF.mp4": 205045891, "Privorot.s01e04.2025.WEBRip-AVC.KPK.GF.mp4": 201400840}
创建时间: 2026-08-20 13:47:22 大小:777.67 MB 文件数量:4 热度:0
    ... mkv": 1624685568, "The Crow Girl (2025) - S01E03 - She Wishes to ... mkv": 1642203811, "The Crow Girl (2025) - S01E05 - She Shoots for ... mkv": 1548920988, "The Crow Girl (2025) - S01E01 - She Sees Herself ... ": 1502776656, "The Crow Girl (2025) - S01E02 - The Egg She ...
创建时间: 2026-08-20 13:46:57 大小:8.67 GB 文件数量:6 热度:0
    {"VPN安装教程.txt": 195, "打不开网页,可以免费安装下载VPN.html": 361, "【高清首发】弗兰肯斯坦2025 主演 奥斯卡·伊萨克,克里斯托弗·瓦尔兹.html": 457}
创建时间: 2026-08-20 13:46:54 大小:1013 Bytes 文件数量:3 热度:0
    ... , "Ratiborus KMS Tools 19.10.2025 (Microsoft Windows & Office Activator).exe ... , "Ratiborus KMS Tools 19.10.2025 (Microsoft Windows & Office Activator).nfo ...
创建时间: 2026-08-20 13:13:40 大小:7.6 MB 文件数量:5 热度:0
    ... ": 1592958, "Боланьйо Роберто. Шльондри-вбивці (2025).djvu": 12514854, "Боланьйо Роберто. Шльондри ...
创建时间: 2026-08-20 13:09:56 大小:14.31 MB 文件数量:3 热度:0
    {"Obsession 2025 2160p UHD Blu-ray Remux DV HDR HEVC TrueHD Atmos 7 1-CiNEPHiLES.mkv": 55477377022, "Obsession 2025 2160p UHD Blu-ray Remux DV HDR HEVC TrueHD Atmos 7 1-CiNEPHiLES.mkv.nfo": 1121}
创建时间: 2026-08-20 13:08:39 大小:51.67 GB 文件数量:2 热度:0
    {"VPN安装教程.txt": 195, "打不开网页,可以免费安装下载VPN.html": 361, "【高清首发】祝你好运2025 主演 宋沐心,赵天阳.html": 430}
创建时间: 2026-08-20 13:05:30 大小:986 Bytes 文件数量:3 热度:0
    ... .eng.HI.srt": 135205}, "Obsession.2025.1080p.BluRay.x264.AAC5.1 ... -LAMA.mp4": 2151182823, "Obsession.2025.1080p.BluRay.x264.AAC5.1 ... UIndex.org .txt": 127, "Obsession.2025.1080p.BluRay.x264.AAC5.1 ...
创建时间: 2026-08-20 13:04:17 大小:2 GB 文件数量:8 热度:0
    {"24. Hi.flac": 6794731, "17. Styx.flac": 11774202, "05. A Lull.flac": 9333930, "07. Stigmata.flac": 8372400, "19. Nycteris.flac": 7786949, "13. Questions.flac": 7225060, "23. Eclipsium.flac": 10461265, "01. Fluorescent.flac": 5482325, "02. Angad Skinka. ...
创建时间: 2026-08-20 13:03:20 大小:317.18 MB 文件数量:24 热度:0
    {"Torrent Downloaded From UIndex.org .txt": 127, "Hot Girl Summer 2025 1080p AMZN WEB-DL DDP5 1 H 264-MADSKY.mkv": 5793116436, "Hot Girl Summer 2025 1080p AMZN WEB-DL DDP5 1 H 264-MADSKY.mkv.nfo": 807}
创建时间: 2026-08-20 13:02:36 大小:5.4 GB 文件数量:3 热度:0
    {"[Manipulative.Media].Step.Mommy.Mouthfuls.3.2025.XXX.720p.WEB.x264-NOTAG.mp4": 2429505473}
创建时间: 2026-08-20 12:40:58 大小:2.26 GB 文件数量:1 热度:0
    {"cover.jpg": 162730, "front.jpg": 1069834, "05. Dance Goose.flac": 68385057, "01. Winged Broom.flac": 55918404, "03. House of Bread.flac": 53385255, "04. Elderly Caillou.flac": 88488810, "02. Posted Up at the Darshan Gas Bar.flac": 64758430}
创建时间: 2026-08-20 12:40:35 大小:316.78 MB 文件数量:7 热度:0
    {"Вне закона.S01E01.WEB-DLRip.x264.seleZen.mkv": 397224742, "Вне закона.S01E02.WEB-DLRip.x264.seleZen.mkv": 399973258, "Вне закона.S01E03.WEB-DLRip.x264.seleZen.mkv": 418588289, "Вне закона.S01E04.WEB-DLRip.x264.seleZen.mkv": 384825351, "Вне закона.S01E05. ...
创建时间: 2026-08-20 12:40:07 大小:4.48 GB 文件数量:12 热度:0